Time;durP1;ratioP1;P1;durP2;ratioP2;P2;SDS_P1;SDS_P2;PMS_P1;PMS_P2;Temp;Humidity;BMP_temperature;BMP_pressure;BME280_temperature;BME280_humidity;BME280_pressure;Samples;Min_cycle;Max_cycle;Signal;HPM_P1;HPM_P2
2022/08/18 00:02:25;;;;;;;7.90;6.80;;;22.90;99.90;;;;;;5054698;28;20209;-78
2022/08/18 00:04:53;;;;;;;8.45;6.20;;;23.00;99.90;;;;;;5027065;28;20669;-78
2022/08/18 00:07:24;;;;;;;8.07;6.55;;;22.90;99.90;;;;;;5043681;28;20727;-78
2022/08/18 00:09:51;;;;;;;8.50;6.88;;;22.90;99.90;;;;;;5031471;28;20187;-78
2022/08/18 00:12:29;;;;;;;8.65;6.65;;;22.90;99.90;;;;;;5028286;28;20291;-78
2022/08/18 00:15:02;;;;;;;7.95;6.60;;;22.80;99.90;;;;;;5029751;28;20215;-78
2022/08/18 00:17:29;;;;;;;8.43;5.90;;;22.80;99.90;;;;;;5027694;28;20200;-78
2022/08/18 00:19:56;;;;;;;7.38;6.40;;;22.80;99.90;;;;;;5029736;28;20192;-78
2022/08/18 00:22:25;;;;;;;9.05;6.47;;;22.80;99.90;;;;;;5029677;28;20187;-78
2022/08/18 00:24:55;;;;;;;7.32;6.07;;;22.80;99.90;;;;;;5028594;28;20216;-78
2022/08/18 00:27:27;;;;;;;6.53;5.93;;;22.80;99.90;;;;;;5047060;28;20183;-78
2022/08/18 00:29:57;;;;;;;8.80;5.22;;;22.80;99.90;;;;;;5033180;28;20202;-78
2022/08/18 00:32:32;;;;;;;6.13;5.53;;;22.80;99.90;;;;;;5032956;28;20191;-78
2022/08/18 00:35:17;;;;;;;6.47;5.20;;;22.80;99.90;;;;;;5023726;28;20668;-78
2022/08/18 00:37:44;;;;;;;5.95;5.13;;;22.80;99.90;;;;;;5009963;28;20188;-78
2022/08/18 00:40:16;;;;;;;6.03;5.43;;;22.80;99.90;;;;;;5026259;28;20865;-78
2022/08/18 00:42:54;;;;;;;6.05;5.38;;;22.80;99.90;;;;;;4993572;28;20243;-78
2022/08/18 00:45:27;;;;;;;6.53;5.60;;;22.80;99.90;;;;;;5011210;28;20192;-78
2022/08/18 00:47:55;;;;;;;8.55;5.57;;;22.80;99.90;;;;;;5031742;28;20218;-78
2022/08/18 00:50:36;;;;;;;5.82;5.22;;;22.80;99.90;;;;;;5020520;28;20208;-78
2022/08/18 00:53:18;;;;;;;7.13;5.45;;;22.80;99.90;;;;;;5012737;28;20195;-78
2022/08/18 00:55:47;;;;;;;7.05;5.22;;;22.80;99.90;;;;;;5014736;28;20269;-78
2022/08/18 00:58:31;;;;;;;6.10;4.70;;;22.80;99.90;;;;;;5032577;28;20183;-78
2022/08/18 01:01:02;;;;;;;6.95;4.60;;;22.70;99.90;;;;;;5031000;28;20248;-78
2022/08/18 01:03:32;;;;;;;5.40;4.47;;;22.70;99.90;;;;;;5032138;28;20207;-78
2022/08/18 01:06:38;;;;;;;5.07;4.22;;;22.70;99.90;;;;;;5038965;28;20203;-78
2022/08/18 01:09:06;;;;;;;4.22;3.80;;;22.70;99.90;;;;;;5057205;28;20213;-78
2022/08/18 01:11:36;;;;;;;8.43;3.88;;;22.70;99.90;;;;;;5049217;28;20268;-78
2022/08/18 01:14:06;;;;;;;4.95;3.63;;;22.70;99.90;;;;;;5048406;28;20195;-78
2022/08/18 01:22:19;;;;;;;5.78;3.75;;;22.70;99.90;;;;;;5048143;28;20278;-78
2022/08/18 01:27:31;;;;;;;4.47;4.05;;;22.70;99.90;;;;;;5049949;28;20286;-78
2022/08/18 01:30:09;;;;;;;7.20;4.30;;;22.60;99.90;;;;;;5047284;28;20183;-78
2022/08/18 01:32:37;;;;;;;5.82;4.53;;;22.60;99.90;;;;;;5031471;28;20644;-78
2022/08/18 01:35:09;;;;;;;10.60;5.30;;;22.60;99.90;;;;;;5022740;28;20200;-78
2022/08/18 01:37:36;;;;;;;6.93;4.53;;;22.60;99.90;;;;;;5029752;28;20251;-78
2022/08/18 01:40:10;;;;;;;6.43;4.55;;;22.70;99.90;;;;;;5018235;28;20188;-78
2022/08/18 01:42:42;;;;;;;7.63;4.95;;;22.60;99.90;;;;;;5032019;28;20179;-78
2022/08/18 01:45:09;;;;;;;6.50;4.50;;;22.60;99.90;;;;;;5047516;28;20179;-78
2022/08/18 01:47:39;;;;;;;6.22;4.40;;;22.60;99.90;;;;;;5047670;28;20179;-78
2022/08/18 01:50:07;;;;;;;6.00;4.50;;;22.60;99.90;;;;;;5062296;28;20695;-78
2022/08/18 01:52:34;;;;;;;5.43;4.45;;;22.60;99.90;;;;;;5048523;28;20198;-78
2022/08/18 01:55:02;;;;;;;9.00;4.67;;;22.60;99.90;;;;;;5031158;28;20262;-78
2022/08/18 01:57:29;;;;;;;4.43;3.90;;;22.50;99.90;;;;;;5031662;28;20180;-78
2022/08/18 01:59:59;;;;;;;6.28;3.92;;;22.50;99.90;;;;;;5046657;28;20336;-78
2022/08/18 02:02:31;;;;;;;5.15;4.13;;;22.50;99.90;;;;;;5048248;28;20252;-78
2022/08/18 02:05:11;;;;;;;8.23;4.10;;;22.50;99.90;;;;;;5039236;28;20268;-78
2022/08/18 02:07:38;;;;;;;6.95;4.55;;;22.50;99.90;;;;;;5002986;28;20271;-78
2022/08/18 02:10:12;;;;;;;4.97;4.00;;;22.50;99.90;;;;;;5009807;28;20183;-78
2022/08/18 02:12:41;;;;;;;4.30;3.72;;;22.50;99.90;;;;;;5037305;28;20180;-78
2022/08/18 02:15:09;;;;;;;4.63;3.95;;;22.60;99.90;;;;;;5027222;28;20188;-78
2022/08/18 02:17:42;;;;;;;4.97;4.18;;;22.60;99.60;;;;;;5026994;28;20180;-78
2022/08/18 02:20:12;;;;;;;10.13;4.20;;;22.60;99.70;;;;;;5016536;28;20198;-78
2022/08/18 02:22:39;;;;;;;3.78;3.45;;;22.60;99.70;;;;;;5032034;28;20282;-78
2022/08/18 02:25:07;;;;;;;4.32;3.58;;;22.60;99.10;;;;;;5029339;28;20253;-78
2022/08/18 02:27:34;;;;;;;3.78;3.38;;;22.70;99.30;;;;;;5027661;28;20195;-78
2022/08/18 02:30:06;;;;;;;5.82;3.70;;;22.70;99.00;;;;;;5032473;28;20218;-78
2022/08/18 02:32:33;;;;;;;5.60;3.40;;;22.60;98.90;;;;;;5047384;28;20633;-78
2022/08/18 02:35:03;;;;;;;6.88;3.53;;;22.60;98.00;;;;;;5039824;28;20948;-78
2022/08/18 02:37:33;;;;;;;5.50;3.53;;;22.60;97.50;;;;;;5010649;28;20202;-78
2022/08/18 02:39:59;;;;;;;6.50;3.22;;;22.60;97.40;;;;;;5030800;28;20186;-78
2022/08/18 02:42:28;;;;;;;7.20;3.33;;;22.70;97.20;;;;;;5030061;28;20180;-78
2022/08/18 02:44:55;;;;;;;7.80;3.80;;;22.70;97.10;;;;;;5029596;28;20192;-78
2022/08/18 02:47:22;;;;;;;11.80;3.65;;;22.70;97.10;;;;;;5063919;28;20209;-78
2022/08/18 02:49:49;;;;;;;8.57;3.97;;;22.80;97.30;;;;;;5028423;28;20303;-78
2022/08/18 02:52:16;;;;;;;5.03;3.70;;;22.80;97.20;;;;;;5050416;28;20184;-78
2022/08/18 02:54:42;;;;;;;6.38;3.60;;;22.80;97.30;;;;;;5050184;28;20183;-78
2022/08/18 02:57:11;;;;;;;8.82;3.97;;;22.80;97.40;;;;;;5049889;28;20179;-78
2022/08/18 02:59:39;;;;;;;8.35;3.47;;;22.80;97.60;;;;;;5032596;28;20202;-78
2022/08/18 03:02:08;;;;;;;6.28;3.72;;;22.80;97.80;;;;;;5052130;28;20191;-78
2022/08/18 03:04:36;;;;;;;5.68;3.83;;;22.80;97.80;;;;;;5047341;28;20775;-78
2022/08/18 03:07:05;;;;;;;4.80;3.63;;;22.80;98.10;;;;;;5030353;28;20227;-78
2022/08/18 03:09:34;;;;;;;5.22;3.70;;;22.80;98.20;;;;;;5029344;28;20180;-78
2022/08/18 03:12:01;;;;;;;5.97;4.03;;;22.80;98.50;;;;;;5050535;28;20187;-78
2022/08/18 03:14:29;;;;;;;4.15;3.50;;;22.80;98.60;;;;;;5049725;28;20222;-78
2022/08/18 03:16:55;;;;;;;4.78;3.80;;;22.80;98.80;;;;;;5032844;28;20179;-78
2022/08/18 03:19:27;;;;;;;4.15;3.55;;;22.70;98.90;;;;;;5049095;28;20192;-78
2022/08/18 03:21:54;;;;;;;4.25;3.45;;;22.70;99.00;;;;;;5050497;28;20945;-78
2022/08/18 03:24:21;;;;;;;4.30;3.90;;;22.80;99.20;;;;;;5064432;28;20230;-78
2022/08/18 03:26:48;;;;;;;4.90;3.58;;;22.90;99.20;;;;;;5049775;28;20198;-78
2022/08/18 03:29:14;;;;;;;5.75;3.67;;;23.00;99.40;;;;;;5049832;28;20282;-78
2022/08/18 03:31:44;;;;;;;6.43;3.65;;;23.00;99.70;;;;;;5064580;28;20196;-78
2022/08/18 03:34:11;;;;;;;4.88;3.90;;;23.00;99.90;;;;;;5031625;28;20724;-78
2022/08/18 03:36:40;;;;;;;4.93;3.80;;;23.00;99.90;;;;;;5035727;28;20199;-78
2022/08/18 03:39:11;;;;;;;4.40;4.00;;;23.00;99.90;;;;;;5032716;28;20188;-78
2022/08/18 03:41:42;;;;;;;4.75;3.63;;;23.00;99.90;;;;;;5038689;28;20188;-78
2022/08/18 03:44:10;;;;;;;4.68;3.92;;;23.00;99.90;;;;;;5030126;28;20297;-78
2022/08/18 03:46:40;;;;;;;6.18;3.92;;;23.00;99.90;;;;;;5031169;28;20552;-78
2022/08/18 03:49:07;;;;;;;6.72;3.88;;;23.00;99.90;;;;;;5033060;28;20179;-78
2022/08/18 03:51:35;;;;;;;6.75;3.90;;;22.90;99.90;;;;;;5044641;28;20199;-78
2022/08/18 03:54:04;;;;;;;7.03;3.97;;;22.90;99.90;;;;;;5032228;28;20291;-78
2022/08/18 03:56:37;;;;;;;4.97;3.88;;;22.80;99.90;;;;;;5032750;28;20197;-78
2022/08/18 03:59:16;;;;;;;6.25;3.80;;;22.80;99.90;;;;;;5033174;28;20184;-78
2022/08/18 04:01:45;;;;;;;8.23;4.13;;;22.70;99.90;;;;;;5047973;28;20578;-77
2022/08/18 04:04:17;;;;;;;7.38;4.03;;;22.70;99.90;;;;;;5049774;28;20680;-78
2022/08/18 04:06:49;;;;;;;4.80;4.30;;;22.70;99.90;;;;;;5031701;28;20275;-78
2022/08/18 04:09:17;;;;;;;6.95;3.83;;;22.70;99.90;;;;;;5029076;28;20219;-78
2022/08/18 04:11:45;;;;;;;6.05;4.00;;;22.60;99.90;;;;;;5010238;28;20582;-78
2022/08/18 04:14:17;;;;;;;5.03;4.07;;;22.60;99.90;;;;;;5008550;28;20200;-77
2022/08/18 04:16:47;;;;;;;6.50;3.63;;;22.60;99.90;;;;;;5005038;28;20223;-78
2022/08/18 04:19:16;;;;;;;6.97;4.75;;;22.60;99.90;;;;;;5048791;28;20253;-78
2022/08/18 04:21:47;;;;;;;4.65;4.20;;;22.60;99.90;;;;;;5029893;28;20188;-78
2022/08/18 04:24:13;;;;;;;5.70;4.25;;;22.60;99.90;;;;;;5026947;28;20231;-78
2022/08/18 04:26:46;;;;;;;4.30;3.60;;;22.60;99.90;;;;;;5031948;28;20553;-78
2022/08/18 04:29:15;;;;;;;4.65;3.75;;;22.60;99.90;;;;;;5031675;28;20192;-78
2022/08/18 04:31:42;;;;;;;5.50;4.15;;;22.70;99.90;;;;;;5022725;28;20176;-78
2022/08/18 04:34:12;;;;;;;5.05;3.70;;;22.70;99.90;;;;;;5039390;28;20203;-78
2022/08/18 04:36:40;;;;;;;5.97;4.47;;;22.70;99.90;;;;;;5030590;28;20218;-78
2022/08/18 04:39:10;;;;;;;5.72;4.60;;;22.80;99.90;;;;;;5048313;28;20274;-78
2022/08/18 04:41:40;;;;;;;5.05;4.53;;;22.80;99.90;;;;;;5048083;28;20180;-78
2022/08/18 04:44:10;;;;;;;5.45;4.40;;;22.90;99.90;;;;;;5049226;28;20609;-78
2022/08/18 04:46:46;;;;;;;7.22;4.70;;;23.00;99.90;;;;;;5039152;28;20197;-76
2022/08/18 04:49:14;;;;;;;7.18;4.80;;;23.10;99.90;;;;;;5007525;28;20191;-76
2022/08/18 04:53:43;;;;;;;7.50;4.63;;;23.10;99.90;;;;;;5019856;28;20200;-76
2022/08/18 04:54:37;;;;;;;6.88;4.40;;;23.10;99.90;;;;;;5025796;28;20207;-76
2022/08/18 04:57:14;;;;;;;8.18;5.10;;;23.10;99.90;;;;;;5023407;28;20189;-76
2022/08/18 04:59:46;;;;;;;8.07;4.97;;;23.20;99.90;;;;;;5021919;28;20197;-76
2022/08/18 05:02:15;;;;;;;8.57;4.90;;;23.30;99.90;;;;;;5025638;28;20184;-76
2022/08/18 05:04:45;;;;;;;8.48;4.65;;;23.50;99.90;;;;;;5026457;28;20672;-77
2022/08/18 05:07:15;;;;;;;6.47;4.90;;;23.60;99.90;;;;;;5003825;28;20196;-76
2022/08/18 05:09:42;;;;;;;5.00;4.50;;;23.60;99.90;;;;;;5027854;28;20272;-76
2022/08/18 05:12:12;;;;;;;5.43;4.60;;;23.60;99.90;;;;;;5023740;28;20643;-77
2022/08/18 05:14:43;;;;;;;5.63;4.60;;;23.60;99.90;;;;;;5019739;28;20222;-76
2022/08/18 05:17:11;;;;;;;5.43;4.88;;;23.70;99.90;;;;;;5024185;28;20622;-76
2022/08/18 05:19:37;;;;;;;6.57;4.63;;;23.70;99.90;;;;;;5009203;28;20197;-77
2022/08/18 05:22:06;;;;;;;7.00;4.28;;;23.70;99.90;;;;;;5011533;28;20188;-76
2022/08/18 05:24:34;;;;;;;5.93;4.68;;;23.80;99.90;;;;;;5027646;28;20304;-76
2022/08/18 05:27:02;;;;;;;10.20;5.15;;;23.80;99.90;;;;;;5032698;28;20276;-77
2022/08/18 05:29:35;;;;;;;7.65;4.95;;;23.80;99.90;;;;;;5031338;28;20191;-76
2022/08/18 05:32:06;;;;;;;8.57;4.97;;;23.90;99.90;;;;;;5020399;28;20246;-76
2022/08/18 05:34:34;;;;;;;8.70;4.55;;;23.90;99.90;;;;;;5027013;28;20180;-77
2022/08/18 05:37:55;;;;;;;6.32;4.63;;;24.00;99.90;;;;;;5019713;28;20180;-77
2022/08/18 05:40:24;;;;;;;7.90;4.78;;;24.00;99.90;;;;;;5042110;28;20195;-76
2022/08/18 05:42:52;;;;;;;7.03;4.60;;;24.10;99.90;;;;;;5027732;28;20176;-76
2022/08/18 05:45:20;;;;;;;7.88;4.63;;;24.10;99.90;;;;;;5009913;28;20198;-77
2022/08/18 05:47:46;;;;;;;7.30;5.03;;;24.20;99.90;;;;;;4998137;28;20217;-77
2022/08/18 05:50:19;;;;;;;8.02;4.72;;;24.20;99.90;;;;;;5010696;28;20267;-76
2022/08/18 05:53:14;;;;;;;8.85;4.72;;;24.30;99.90;;;;;;5024203;28;20193;-77
2022/08/18 05:58:54;;;;;;;8.18;5.18;;;24.40;99.90;;;;;;5015239;28;20215;-77
2022/08/18 06:01:32;;;;;;;8.02;4.47;;;24.50;99.90;;;;;;5028155;28;20719;-77
2022/08/18 06:04:44;;;;;;;7.65;4.20;;;24.60;99.90;;;;;;5026998;28;20214;-77
2022/08/18 06:07:17;;;;;;;11.48;4.47;;;24.70;99.90;;;;;;5040318;28;20197;-76
2022/08/18 06:09:52;;;;;;;4.90;4.32;;;24.90;99.90;;;;;;5022604;28;20662;-76
2022/08/18 06:12:42;;;;;;;4.75;4.25;;;24.90;99.90;;;;;;5063318;28;20210;-77
2022/08/18 06:15:23;;;;;;;7.88;5.03;;;25.00;99.90;;;;;;5046700;28;20544;-77
2022/08/18 06:18:05;;;;;;;6.85;4.30;;;25.00;99.90;;;;;;5034589;28;20665;-77
2022/08/18 06:20:54;;;;;;;4.50;4.05;;;25.10;99.90;;;;;;5023296;28;20208;-77
2022/08/18 06:23:45;;;;;;;7.15;4.32;;;25.20;99.90;;;;;;5025525;28;20208;-74
2022/08/18 06:26:16;;;;;;;6.07;4.30;;;25.20;99.90;;;;;;5025970;28;20184;-77
2022/08/18 06:29:07;;;;;;;6.68;4.63;;;25.30;99.90;;;;;;5026145;28;20214;-77
2022/08/18 06:32:09;;;;;;;5.95;4.57;;;25.40;99.90;;;;;;5030645;28;20275;-73
2022/08/18 06:35:09;;;;;;;9.13;5.07;;;25.50;99.90;;;;;;4999390;28;20196;-74
2022/08/18 06:40:36;;;;;;;5.88;4.15;;;25.70;99.90;;;;;;5017097;28;20189;-76
2022/08/18 06:43:14;;;;;;;5.68;4.57;;;25.80;99.90;;;;;;5027867;28;20249;-76
2022/08/18 06:45:47;;;;;;;4.30;3.90;;;25.80;99.90;;;;;;4994725;28;20275;-76
2022/08/18 06:48:43;;;;;;;6.03;4.15;;;25.90;99.90;;;;;;5052680;28;20239;-76
2022/08/18 06:51:18;;;;;;;7.05;4.57;;;26.00;99.90;;;;;;5029307;28;20239;-76
2022/08/18 06:54:02;;;;;;;7.53;4.57;;;26.10;99.90;;;;;;5043106;28;20183;-76
2022/08/18 06:56:42;;;;;;;5.60;4.35;;;26.10;99.90;;;;;;5032429;28;20695;-76
2022/08/18 06:59:33;;;;;;;7.65;4.57;;;26.40;99.90;;;;;;5033134;28;20188;-76
2022/08/18 07:02:35;;;;;;;7.05;4.65;;;26.40;99.90;;;;;;5043600;28;20545;-74
2022/08/18 07:05:14;;;;;;;8.07;5.45;;;26.50;99.90;;;;;;5022070;28;20229;-76
2022/08/18 07:07:45;;;;;;;6.68;4.43;;;26.60;99.90;;;;;;5023234;28;20187;-76
2022/08/18 07:10:15;;;;;;;9.07;4.50;;;26.70;99.90;;;;;;5030892;28;20184;-76
2022/08/18 07:12:42;;;;;;;7.45;4.32;;;26.80;99.90;;;;;;5042564;28;20192;-77
2022/08/18 07:15:12;;;;;;;7.45;4.53;;;26.90;99.90;;;;;;5031481;28;20283;-76
2022/08/18 07:17:38;;;;;;;7.22;5.03;;;26.90;99.90;;;;;;5030548;28;20180;-74
2022/08/18 07:20:19;;;;;;;7.85;4.68;;;27.00;99.90;;;;;;5026838;28;20177;-76
2022/08/18 07:23:01;;;;;;;5.47;4.50;;;27.10;99.90;;;;;;5013927;28;20192;-76
2022/08/18 07:25:51;;;;;;;9.25;5.43;;;27.10;99.90;;;;;;5011269;28;20319;-76
2022/08/18 07:28:52;;;;;;;5.63;5.00;;;27.20;99.90;;;;;;4994105;28;20188;-74
2022/08/18 07:31:41;;;;;;;5.07;4.68;;;27.30;99.90;;;;;;5005767;28;20361;-76
2022/08/18 07:34:24;;;;;;;10.65;4.80;;;27.40;99.90;;;;;;5023520;28;20185;-76
2022/08/18 07:37:28;;;;;;;7.30;4.70;;;27.50;99.90;;;;;;5025693;28;20220;-76
2022/08/18 07:40:09;;;;;;;7.90;4.90;;;27.50;99.90;;;;;;5027580;28;20188;-76
2022/08/18 07:42:43;;;;;;;5.38;4.80;;;27.60;99.90;;;;;;5021689;28;20276;-77
2022/08/18 07:45:37;;;;;;;6.22;4.55;;;27.60;99.90;;;;;;5029097;28;20355;-77
2022/08/18 07:48:20;;;;;;;7.53;4.47;;;27.60;99.90;;;;;;5025470;28;20192;-77
2022/08/18 07:50:59;;;;;;;8.70;5.05;;;27.80;99.90;;;;;;5030378;28;20191;-77
2022/08/18 07:54:07;;;;;;;7.22;5.00;;;27.80;99.90;;;;;;5032571;28;20179;-77
2022/08/18 07:57:04;;;;;;;8.52;5.25;;;28.00;99.90;;;;;;5031333;28;20180;-77
2022/08/18 07:59:55;;;;;;;5.75;5.15;;;28.10;99.90;;;;;;5029825;28;20203;-77
2022/08/18 08:03:08;;;;;;;6.15;5.03;;;28.10;99.90;;;;;;5036199;28;20542;-76
2022/08/18 08:06:06;;;;;;;7.18;5.60;;;28.20;99.90;;;;;;5026992;28;20910;-77
2022/08/18 08:08:48;;;;;;;7.35;4.50;;;28.20;99.90;;;;;;4998078;28;20216;-77
2022/08/18 08:11:48;;;;;;;8.23;5.28;;;28.30;99.90;;;;;;5014180;28;20237;-77
2022/08/18 08:14:27;;;;;;;8.10;5.18;;;28.40;99.90;;;;;;5028102;28;20200;-77
2022/08/18 08:17:17;;;;;;;5.47;4.95;;;28.50;99.90;;;;;;5032325;28;20537;-77
2022/08/18 08:20:24;;;;;;;6.03;5.22;;;28.60;99.90;;;;;;5028503;28;20679;-77
2022/08/18 08:23:33;;;;;;;5.82;4.72;;;28.80;99.90;;;;;;5022750;28;20180;-77
2022/08/18 08:26:24;;;;;;;6.05;5.10;;;28.80;99.90;;;;;;5027117;28;20188;-77
2022/08/18 08:29:13;;;;;;;7.78;4.68;;;28.90;99.90;;;;;;5032218;28;20202;-77
2022/08/18 08:32:09;;;;;;;6.25;5.05;;;29.00;99.90;;;;;;5029299;28;20184;-76
2022/08/18 08:35:02;;;;;;;8.13;5.13;;;29.10;99.90;;;;;;5017378;28;20188;-76
2022/08/18 08:37:45;;;;;;;7.95;4.93;;;29.20;99.90;;;;;;5032642;28;20196;-77
2022/08/18 08:41:08;;;;;;;6.20;4.82;;;29.30;99.90;;;;;;5049284;28;20969;-77
2022/08/18 08:43:42;;;;;;;14.35;5.65;;;29.40;99.90;;;;;;5026635;28;20228;-77
2022/08/18 08:46:30;;;;;;;10.50;5.85;;;29.50;99.90;;;;;;5006268;28;20317;-77
2022/08/18 08:49:22;;;;;;;9.85;6.40;;;29.50;99.90;;;;;;5013716;28;20196;-77
2022/08/18 08:52:00;;;;;;;10.55;5.65;;;29.60;99.90;;;;;;5021415;28;20212;-77
2022/08/18 08:55:02;;;;;;;8.02;5.80;;;29.80;99.90;;;;;;5011197;28;20192;-77
2022/08/18 08:58:00;;;;;;;9.75;5.90;;;29.80;99.90;;;;;;5027682;28;20203;-77
2022/08/18 09:00:28;;;;;;;8.00;5.40;;;29.80;99.90;;;;;;5025061;28;20969;-77
2022/08/18 09:03:37;;;;;;;9.70;6.10;;;29.90;99.90;;;;;;5024525;28;20231;-77
2022/08/18 09:06:35;;;;;;;10.52;5.75;;;29.90;99.90;;;;;;5004931;28;20189;-77
2022/08/18 09:09:28;;;;;;;9.20;5.80;;;29.90;99.90;;;;;;5039100;28;20660;-77
2022/08/18 09:12:38;;;;;;;7.88;6.05;;;29.90;99.90;;;;;;5034613;28;20234;-77
2022/08/18 09:15:17;;;;;;;9.52;6.20;;;29.80;99.90;;;;;;5038804;28;20620;-77
2022/08/18 09:18:27;;;;;;;15.13;6.20;;;29.90;99.90;;;;;;5029084;28;20273;-77
2022/08/18 09:20:56;;;;;;;9.60;6.22;;;30.20;99.90;;;;;;4997903;28;21024;-77
2022/08/18 09:23:33;;;;;;;9.55;6.10;;;30.30;99.90;;;;;;5024347;28;20207;-77
2022/08/18 09:26:34;;;;;;;9.63;6.00;;;30.30;99.90;;;;;;5029044;28;20766;-77
2022/08/18 09:29:24;;;;;;;8.57;6.18;;;30.30;99.90;;;;;;5024374;28;20314;-77
2022/08/18 09:32:19;;;;;;;10.85;5.82;;;30.30;99.90;;;;;;5009814;28;20843;-76
2022/08/18 09:35:04;;;;;;;10.07;6.10;;;30.40;99.90;;;;;;5032044;28;20214;-77
2022/08/18 09:41:31;;;;;;;10.75;6.40;;;30.40;99.90;;;;;;5028272;28;20529;-77
2022/08/18 09:44:14;;;;;;;8.52;5.88;;;30.30;99.90;;;;;;5011434;28;20262;-77
2022/08/18 09:46:45;;;;;;;9.75;5.93;;;30.40;99.90;;;;;;5010404;28;20270;-76
2022/08/18 09:49:25;;;;;;;10.63;6.22;;;30.60;99.90;;;;;;5046633;28;20241;-77
2022/08/18 09:52:26;;;;;;;9.88;5.65;;;30.60;99.90;;;;;;5032031;28;20788;-76
2022/08/18 09:54:59;;;;;;;11.13;5.85;;;30.70;99.90;;;;;;5030492;28;20224;-75
2022/08/18 09:57:34;;;;;;;6.80;5.95;;;30.70;99.90;;;;;;5027478;28;20274;-74
2022/08/18 10:00:03;;;;;;;9.73;6.10;;;30.90;99.90;;;;;;5038659;28;20187;-77
2022/08/18 10:02:40;;;;;;;10.35;6.07;;;30.80;99.90;;;;;;5041110;28;20513;-74
2022/08/18 10:05:17;;;;;;;10.38;6.13;;;30.90;99.90;;;;;;5046854;28;20222;-78
2022/08/18 10:08:06;;;;;;;9.68;6.15;;;31.10;99.90;;;;;;5026032;28;20599;-77
2022/08/18 10:10:57;;;;;;;9.68;6.18;;;31.20;99.90;;;;;;5026969;28;20191;-77
2022/08/18 10:13:40;;;;;;;9.63;5.50;;;31.30;99.90;;;;;;5024519;28;20180;-78
2022/08/18 10:16:25;;;;;;;8.85;5.80;;;31.30;99.90;;;;;;5029796;28;20687;-77
2022/08/18 10:19:09;;;;;;;11.43;6.70;;;31.40;99.90;;;;;;4991100;28;20238;-77
2022/08/18 10:21:57;;;;;;;8.45;5.78;;;31.50;99.90;;;;;;5017819;28;20188;-77
2022/08/18 10:24:39;;;;;;;9.90;5.90;;;31.60;99.90;;;;;;5037739;28;20282;-76
2022/08/18 10:27:32;;;;;;;11.65;6.03;;;31.70;99.90;;;;;;5030739;28;20521;-77
2022/08/18 10:29:59;;;;;;;8.13;5.95;;;31.60;99.90;;;;;;5027657;28;20188;-77
2022/08/18 10:32:40;;;;;;;6.80;5.72;;;31.70;99.90;;;;;;5020579;28;20209;-76
2022/08/18 10:35:36;;;;;;;8.10;5.45;;;31.80;99.90;;;;;;5047377;28;20645;-77
2022/08/18 10:38:12;;;;;;;12.65;5.90;;;31.80;99.90;;;;;;4997247;28;20286;-76
2022/08/18 10:40:42;;;;;;;8.38;5.80;;;31.80;99.90;;;;;;5018568;28;20687;-76
2022/08/18 10:43:18;;;;;;;11.00;5.90;;;31.90;99.90;;;;;;5037185;28;20218;-76
2022/08/18 10:45:51;;;;;;;10.13;6.72;;;32.00;99.90;;;;;;5027164;28;20269;-77
2022/08/18 10:48:31;;;;;;;10.10;6.22;;;32.10;99.90;;;;;;5008277;28;20207;-77
2022/08/18 10:51:39;;;;;;;14.23;6.68;;;32.10;99.90;;;;;;5020885;28;20195;-74
2022/08/18 10:54:44;;;;;;;9.02;6.13;;;32.00;99.90;;;;;;5006906;28;20192;-75
2022/08/18 10:57:32;;;;;;;9.80;6.13;;;31.90;99.90;;;;;;5005925;28;20192;-74
2022/08/18 11:00:38;;;;;;;11.82;5.38;;;32.00;99.90;;;;;;5027313;28;20193;-76
2022/08/18 11:03:37;;;;;;;7.60;5.55;;;31.90;99.90;;;;;;5018707;28;20188;-76
2022/08/18 11:06:16;;;;;;;11.15;5.63;;;31.90;99.90;;;;;;5030527;28;20219;-76
2022/08/18 11:08:49;;;;;;;10.95;5.53;;;32.00;99.90;;;;;;5030382;28;20188;-76
2022/08/18 11:11:25;;;;;;;7.65;5.57;;;32.00;99.90;;;;;;5034696;28;20271;-76
2022/08/18 11:14:22;;;;;;;9.18;6.03;;;31.90;99.90;;;;;;5017535;28;20187;-77
2022/08/18 11:17:22;;;;;;;13.75;5.88;;;31.90;99.90;;;;;;5014711;28;20198;-77
2022/08/18 11:19:51;;;;;;;10.07;5.88;;;32.00;99.90;;;;;;4995104;28;20557;-76
2022/08/18 11:22:32;;;;;;;9.57;5.95;;;31.90;99.90;;;;;;5028534;28;20283;-77
2022/08/18 11:25:02;;;;;;;9.40;5.82;;;31.90;99.90;;;;;;5013909;28;20211;-76
2022/08/18 11:27:36;;;;;;;11.95;6.28;;;31.90;99.90;;;;;;5012531;28;20278;-77
2022/08/18 11:30:05;;;;;;;18.63;6.50;;;31.90;99.90;;;;;;5032006;28;20702;-77
2022/08/18 11:32:39;;;;;;;11.93;6.30;;;31.90;99.90;;;;;;5034774;28;20208;-77
2022/08/18 11:35:34;;;;;;;7.63;5.97;;;31.90;99.90;;;;;;5017073;28;20194;-77
2022/08/18 11:38:10;;;;;;;14.93;6.20;;;31.80;99.90;;;;;;5015217;28;20749;-77
2022/08/18 11:41:17;;;;;;;10.10;6.03;;;31.90;99.90;;;;;;5025081;28;20203;-77
2022/08/18 11:43:47;;;;;;;12.45;6.45;;;31.90;99.90;;;;;;5038041;28;20220;-77
2022/08/18 11:46:28;;;;;;;8.30;6.05;;;31.90;99.90;;;;;;5043313;28;20192;-77
2022/08/18 11:48:55;;;;;;;12.43;5.90;;;31.90;99.90;;;;;;5015224;28;20187;-77
2022/08/18 11:51:30;;;;;;;9.80;6.10;;;32.00;99.90;;;;;;5028900;28;20242;-77
2022/08/18 11:54:14;;;;;;;13.38;6.18;;;32.10;99.90;;;;;;5030486;28;20191;-77
2022/08/18 11:56:41;;;;;;;7.95;6.05;;;32.20;99.90;;;;;;5014805;28;20187;-77
2022/08/18 11:59:30;;;;;;;8.60;5.80;;;32.10;99.90;;;;;;5013999;28;20234;-76
2022/08/18 12:01:58;;;;;;;10.70;6.18;;;32.20;99.90;;;;;;5039113;28;20561;-77
2022/08/18 12:04:41;;;;;;;15.35;6.80;;;32.10;99.90;;;;;;5012850;28;20203;-76
2022/08/18 12:07:16;;;;;;;7.18;6.05;;;32.10;99.90;;;;;;5039816;28;20226;-76
2022/08/18 12:10:26;;;;;;;14.05;6.20;;;32.10;99.90;;;;;;5049993;28;20179;-77
2022/08/18 12:12:54;;;;;;;9.82;6.75;;;32.10;99.90;;;;;;5030887;28;20187;-76
2022/08/18 12:15:32;;;;;;;11.07;6.45;;;32.20;99.90;;;;;;5036391;28;20322;-77
2022/08/18 12:18:03;;;;;;;11.60;6.43;;;32.10;99.90;;;;;;5033723;28;20273;-76
2022/08/18 12:20:29;;;;;;;9.15;6.55;;;32.10;99.90;;;;;;5048609;28;20203;-77
2022/08/18 12:22:57;;;;;;;7.95;5.88;;;31.90;99.90;;;;;;5033690;28;20242;-77
2022/08/18 12:25:23;;;;;;;13.25;6.32;;;31.80;99.90;;;;;;5029434;28;20523;-77
2022/08/18 12:27:50;;;;;;;9.88;5.93;;;31.90;99.90;;;;;;5063050;28;20236;-77
2022/08/18 12:30:17;;;;;;;9.15;6.05;;;31.80;99.90;;;;;;5025237;28;20191;-77
2022/08/18 12:32:44;;;;;;;13.13;6.47;;;31.90;99.90;;;;;;5030477;28;20179;-77
2022/08/18 12:35:12;;;;;;;9.02;6.53;;;31.90;99.90;;;;;;5028871;28;20231;-77
2022/08/18 12:37:44;;;;;;;7.45;5.70;;;31.90;99.90;;;;;;5014023;28;20187;-77
2022/08/18 12:40:11;;;;;;;13.38;6.85;;;31.80;99.90;;;;;;5028416;28;20534;-78
2022/08/18 12:42:38;;;;;;;10.38;5.85;;;31.70;99.90;;;;;;5030125;28;20199;-77
2022/08/18 12:45:06;;;;;;;11.43;5.85;;;31.80;99.90;;;;;;5013822;28;20219;-77
2022/08/18 12:47:36;;;;;;;11.25;5.38;;;31.80;99.90;;;;;;5007394;28;20558;-77
2022/08/18 12:50:04;;;;;;;8.35;5.90;;;31.90;99.90;;;;;;5021062;28;20237;-77
2022/08/18 12:52:30;;;;;;;11.52;5.85;;;32.00;99.90;;;;;;5014955;28;20191;-77
2022/08/18 12:54:57;;;;;;;9.05;5.75;;;31.90;99.90;;;;;;5013723;28;20195;-77
2022/08/18 12:57:29;;;;;;;9.48;6.03;;;31.80;99.90;;;;;;5008277;28;20201;-77
2022/08/18 12:59:56;;;;;;;11.75;6.07;;;31.70;99.90;;;;;;4993154;28;20195;-77
2022/08/18 13:02:29;;;;;;;7.88;5.47;;;31.60;99.90;;;;;;5015957;28;20180;-77
2022/08/18 13:04:57;;;;;;;8.85;5.63;;;31.60;99.90;;;;;;5006376;28;20216;-77
2022/08/18 13:07:23;;;;;;;10.73;5.60;;;31.60;99.90;;;;;;5024348;28;20189;-77
2022/08/18 13:09:49;;;;;;;7.88;5.32;;;31.60;99.90;;;;;;5023037;28;20199;-77
2022/08/18 13:12:17;;;;;;;8.35;5.10;;;31.50;99.90;;;;;;5042206;28;20187;-77
2022/08/18 13:14:45;;;;;;;9.48;5.50;;;31.50;99.90;;;;;;5019647;28;20262;-77
2022/08/18 13:17:14;;;;;;;8.27;4.60;;;31.50;99.90;;;;;;5006144;28;20191;-77
2022/08/18 13:19:41;;;;;;;7.47;5.05;;;31.50;99.90;;;;;;5021937;28;20219;-77
2022/08/18 13:22:08;;;;;;;10.32;5.30;;;31.40;99.90;;;;;;5009200;28;20284;-78
2022/08/18 13:24:34;;;;;;;8.15;5.07;;;31.40;99.90;;;;;;5026176;28;20346;-77
2022/08/18 13:27:03;;;;;;;8.73;5.43;;;31.40;99.90;;;;;;5023616;28;20681;-77
2022/08/18 13:29:30;;;;;;;7.30;4.97;;;31.40;99.90;;;;;;5030810;28;20184;-77
2022/08/18 13:31:58;;;;;;;14.82;5.57;;;31.40;99.90;;;;;;5015384;28;20188;-77
2022/08/18 13:34:28;;;;;;;12.45;5.85;;;31.50;99.90;;;;;;5007961;28;20247;-77
2022/08/18 13:36:54;;;;;;;8.55;5.10;;;31.50;99.90;;;;;;5028854;28;20677;-77
2022/08/18 13:39:24;;;;;;;10.85;5.40;;;31.40;99.90;;;;;;5024805;28;20276;-77
2022/08/18 13:41:53;;;;;;;8.93;5.03;;;31.30;99.90;;;;;;5018991;28;20224;-77
2022/08/18 13:44:22;;;;;;;7.50;4.80;;;31.30;99.90;;;;;;5012767;28;20407;-77
2022/08/18 13:46:50;;;;;;;7.82;4.82;;;31.20;99.90;;;;;;5050707;28;21015;-77
2022/08/18 13:49:23;;;;;;;8.13;4.75;;;31.20;99.90;;;;;;5049270;28;20187;-76
2022/08/18 13:52:00;;;;;;;12.73;5.25;;;31.20;99.90;;;;;;5022849;28;20185;-77
2022/08/18 13:54:32;;;;;;;8.65;5.18;;;31.10;99.90;;;;;;5011934;28;20194;-77